Time;durP1;ratioP1;P1;durP2;ratioP2;P2;SDS_P1;SDS_P2;PMS_P1;PMS_P2;Temp;Humidity;BMP_temperature;BMP_pressure;BME280_temperature;BME280_humidity;BME280_pressure;Samples;Min_cycle;Max_cycle;Signal;HPM_P1;HPM_P2
2024/01/16 00:02:11;;;;;;;5.53;2.83;;;;;;;0.64;100.00;99168.03;5608542;31;35044;-69
2024/01/16 00:05:15;;;;;;;4.00;2.80;;;;;;;0.68;100.00;99177.25;5608683;31;35362;-70
2024/01/16 00:08:18;;;;;;;3.25;2.60;;;;;;;0.68;100.00;99180.69;5608458;31;35330;-69
2024/01/16 00:11:21;;;;;;;3.70;2.47;;;;;;;0.60;100.00;99177.09;5608346;31;35249;-69
2024/01/16 00:14:23;;;;;;;3.78;2.67;;;;;;;0.62;100.00;99183.84;5607929;31;34391;-69
2024/01/16 00:17:26;;;;;;;3.67;2.17;;;;;;;0.64;100.00;99183.69;5608381;31;34406;-69
2024/01/16 00:20:29;;;;;;;3.62;2.37;;;;;;;0.64;100.00;99191.53;5607556;31;35773;-69
2024/01/16 00:23:32;;;;;;;4.68;2.45;;;;;;;0.55;100.00;99180.13;5607750;31;34990;-70
2024/01/16 00:26:35;;;;;;;5.20;2.30;;;;;;;0.59;100.00;99193.72;5608561;31;34320;-69
2024/01/16 00:29:38;;;;;;;4.05;2.10;;;;;;;0.52;100.00;99203.03;5608470;31;35028;-69
2024/01/16 00:32:41;;;;;;;3.53;2.25;;;;;;;0.62;100.00;99199.50;5608634;31;34355;-70
2024/01/16 00:35:44;;;;;;;3.20;2.17;;;;;;;0.69;100.00;99205.81;5608309;31;35463;-69
2024/01/16 00:38:48;;;;;;;3.17;2.20;;;;;;;0.58;100.00;99218.97;5607835;31;35272;-69
2024/01/16 00:41:51;;;;;;;3.30;2.20;;;;;;;0.52;100.00;99222.13;5607445;31;34854;-68
2024/01/16 00:44:54;;;;;;;2.75;1.98;;;;;;;0.73;100.00;99227.25;5608200;31;34268;-70
2024/01/16 00:47:57;;;;;;;3.22;2.30;;;;;;;0.82;100.00;99224.66;5607121;31;34281;-69
2024/01/16 00:51:00;;;;;;;3.67;2.40;;;;;;;0.86;100.00;99239.13;5608040;31;34989;-69
2024/01/16 00:54:03;;;;;;;2.97;2.20;;;;;;;0.97;100.00;99239.97;5608063;31;34290;-69
2024/01/16 00:57:06;;;;;;;3.30;2.40;;;;;;;1.05;100.00;99254.00;5607926;31;35270;-69
2024/01/16 01:00:11;;;;;;;2.65;2.00;;;;;;;1.12;100.00;99252.50;5607117;31;34986;-70
2024/01/16 01:03:14;;;;;;;3.35;2.42;;;;;;;1.28;100.00;99254.56;5607883;31;34917;-69
2024/01/16 01:06:17;;;;;;;3.30;2.22;;;;;;;1.25;100.00;99263.53;5608159;31;34392;-69
2024/01/16 01:09:20;;;;;;;2.40;2.10;;;;;;;1.13;100.00;99259.38;5607697;31;35255;-70
2024/01/16 01:12:23;;;;;;;2.92;2.20;;;;;;;0.99;100.00;99280.66;5607889;31;34852;-69
2024/01/16 01:15:26;;;;;;;3.83;2.35;;;;;;;1.01;100.00;99289.19;5607607;31;35316;-69
2024/01/16 01:18:29;;;;;;;3.40;2.40;;;;;;;1.07;100.00;99277.34;5607619;31;34977;-69
2024/01/16 01:21:32;;;;;;;2.50;2.22;;;;;;;1.15;100.00;99277.53;5607445;31;35032;-70
2024/01/16 01:24:35;;;;;;;3.25;2.37;;;;;;;1.18;100.00;99279.84;5607523;31;34323;-70
2024/01/16 01:27:39;;;;;;;2.90;2.10;;;;;;;1.04;100.00;99293.31;5607457;31;34286;-69
2024/01/16 01:30:41;;;;;;;4.05;2.20;;;;;;;1.06;100.00;99302.69;5607361;31;34413;-69
2024/01/16 01:33:44;;;;;;;4.22;2.50;;;;;;;1.06;100.00;99291.41;5607362;31;35529;-69
2024/01/16 01:36:47;;;;;;;3.15;2.37;;;;;;;1.04;100.00;99285.47;5606466;31;34418;-70
2024/01/16 01:39:50;;;;;;;3.12;2.40;;;;;;;0.92;100.00;99297.78;5607363;31;34644;-70
2024/01/16 01:42:53;;;;;;;3.97;2.35;;;;;;;0.96;100.00;99303.59;5607214;31;34425;-69
2024/01/16 01:46:14;;;;;;;2.70;2.20;;;;;;;1.02;100.00;99296.03;5607102;31;34375;-69
2024/01/16 01:49:17;;;;;;;4.60;2.60;;;;;;;1.08;100.00;99310.34;5607178;31;35001;-70
2024/01/16 01:52:20;;;;;;;4.60;2.62;;;;;;;1.04;100.00;99309.81;5607126;31;34235;-70
2024/01/16 01:55:23;;;;;;;3.70;2.60;;;;;;;1.01;100.00;99307.47;5607481;31;34991;-70
2024/01/16 01:58:26;;;;;;;4.03;2.25;;;;;;;0.96;100.00;99311.44;5606959;31;34492;-70
2024/01/16 02:01:31;;;;;;;3.05;2.30;;;;;;;0.94;100.00;99310.72;5608992;31;34315;-70
2024/01/16 02:04:35;;;;;;;3.33;2.12;;;;;;;0.96;100.00;99314.87;5609729;31;34641;-69
2024/01/16 02:07:38;;;;;;;2.62;2.00;;;;;;;0.91;100.00;99326.69;5609746;31;34997;-70
2024/01/16 02:10:45;;;;;;;3.12;2.37;;;;;;;0.93;100.00;99325.56;5609758;31;34917;-70
2024/01/16 02:13:48;;;;;;;3.53;2.20;;;;;;;0.84;100.00;99326.38;5608767;31;35004;-70
2024/01/16 02:16:51;;;;;;;3.33;2.05;;;;;;;0.83;100.00;99335.16;5609726;31;35088;-69
2024/01/16 02:19:54;;;;;;;2.72;2.10;;;;;;;0.74;100.00;99344.59;5608775;31;35352;-70
2024/01/16 02:23:03;;;;;;;3.28;2.40;;;;;;;0.80;100.00;99346.69;5609707;31;34251;-69
2024/01/16 02:26:06;;;;;;;3.50;2.35;;;;;;;0.78;100.00;99347.75;5609581;31;34272;-69
2024/01/16 02:29:09;;;;;;;3.25;2.20;;;;;;;0.71;100.00;99360.53;5609514;31;34340;-69
2024/01/16 02:32:12;;;;;;;3.37;2.35;;;;;;;0.72;100.00;99367.41;5609300;31;34224;-70
2024/01/16 02:35:17;;;;;;;3.75;2.50;;;;;;;0.81;100.00;99377.06;5609462;31;35293;-70
2024/01/16 02:38:20;;;;;;;3.28;2.20;;;;;;;0.79;100.00;99378.16;5609450;31;34434;-69
2024/01/16 02:41:23;;;;;;;4.32;2.25;;;;;;;0.69;100.00;99378.09;5608542;31;34362;-69
2024/01/16 02:44:26;;;;;;;2.37;2.10;;;;;;;0.60;100.00;99373.66;5609260;31;34359;-69
2024/01/16 02:47:29;;;;;;;3.20;2.40;;;;;;;0.62;100.00;99386.59;5609525;31;34386;-70
2024/01/16 02:50:32;;;;;;;4.60;2.90;;;;;;;0.76;100.00;99388.84;5609608;31;34952;-69
2024/01/16 02:53:35;;;;;;;3.45;2.50;;;;;;;0.77;100.00;99391.34;5608750;31;34272;-70
2024/01/16 02:56:38;;;;;;;4.30;2.62;;;;;;;0.55;100.00;99394.09;5608512;31;35011;-69
2024/01/16 02:59:43;;;;;;;3.17;2.47;;;;;;;0.59;100.00;99392.03;5608508;31;35276;-70
2024/01/16 03:02:46;;;;;;;4.00;2.75;;;;;;;0.60;100.00;99388.47;5609174;31;35422;-69
2024/01/16 03:05:50;;;;;;;4.53;3.20;;;;;;;0.61;100.00;99390.16;5609114;31;34457;-69
2024/01/16 03:08:53;;;;;;;3.72;2.95;;;;;;;0.63;100.00;99393.47;5609460;31;34295;-69
2024/01/16 03:11:55;;;;;;;4.12;2.90;;;;;;;0.57;100.00;99396.59;5608302;31;34380;-70
2024/01/16 03:14:59;;;;;;;4.18;3.08;;;;;;;0.52;100.00;99388.31;5608921;31;34971;-69
2024/01/16 03:18:01;;;;;;;3.62;2.78;;;;;;;0.57;100.00;99392.19;5609161;31;34524;-69
2024/01/16 03:21:08;;;;;;;4.20;2.83;;;;;;;0.58;100.00;99400.84;5609025;31;34405;-69
2024/01/16 03:24:11;;;;;;;5.10;3.25;;;;;;;0.67;100.00;99406.13;5608283;31;34337;-69
2024/01/16 03:27:14;;;;;;;4.95;3.12;;;;;;;0.60;100.00;99410.19;5608968;31;34494;-69
2024/01/16 03:30:17;;;;;;;4.78;3.10;;;;;;;0.55;100.00;99407.13;5609020;31;34499;-70
2024/01/16 03:33:20;;;;;;;4.72;3.00;;;;;;;0.51;100.00;99413.56;5608908;31;34981;-69
2024/01/16 03:36:23;;;;;;;4.15;2.90;;;;;;;0.65;100.00;99405.41;5608884;31;35055;-70
2024/01/16 03:39:27;;;;;;;3.85;2.90;;;;;;;0.62;100.00;99410.91;5609037;31;34293;-69
2024/01/16 03:42:30;;;;;;;4.60;3.03;;;;;;;0.70;100.00;99405.03;5607969;31;34379;-69
2024/01/16 03:45:33;;;;;;;4.57;2.90;;;;;;;0.72;100.00;99417.00;5608762;31;34284;-69
2024/01/16 03:48:35;;;;;;;3.60;2.65;;;;;;;0.75;100.00;99419.34;5608666;31;34392;-68
2024/01/16 03:51:46;;;;;;;4.55;3.00;;;;;;;0.80;100.00;99432.00;5608873;31;34330;-69
2024/01/16 03:54:49;;;;;;;4.57;2.95;;;;;;;0.75;100.00;99444.63;5608627;31;34212;-69
2024/01/16 03:57:52;;;;;;;3.47;2.87;;;;;;;0.70;100.00;99442.41;5609023;31;34998;-70
2024/01/16 04:00:54;;;;;;;3.80;2.95;;;;;;;0.70;100.00;99445.00;5607884;31;34612;-69
2024/01/16 04:03:57;;;;;;;4.65;3.10;;;;;;;0.75;100.00;99445.47;5608702;31;34437;-69
2024/01/16 04:07:00;;;;;;;4.95;2.70;;;;;;;0.68;100.00;99446.06;5608553;31;34530;-70
2024/01/16 04:10:05;;;;;;;4.22;2.90;;;;;;;0.75;100.00;99449.84;5607760;31;34428;-69
2024/01/16 04:13:08;;;;;;;4.22;2.87;;;;;;;0.78;100.00;99445.19;5608578;31;34405;-69
2024/01/16 04:16:12;;;;;;;6.43;3.00;;;;;;;0.81;100.00;99460.63;5608385;31;34371;-70
2024/01/16 04:19:15;;;;;;;4.28;2.80;;;;;;;0.70;100.00;99459.84;5602969;31;147824;-69
2024/01/16 04:22:18;;;;;;;5.25;2.85;;;;;;;0.75;100.00;99458.50;5607705;31;35184;-69
2024/01/16 04:25:20;;;;;;;4.30;2.87;;;;;;;0.72;100.00;99465.78;5608404;31;34494;-70
2024/01/16 04:28:23;;;;;;;6.03;2.95;;;;;;;0.77;100.00;99463.62;5608406;31;34480;-69
2024/01/16 04:31:26;;;;;;;5.22;2.70;;;;;;;0.77;100.00;99474.87;5608426;31;34423;-70
2024/01/16 04:34:29;;;;;;;4.87;2.80;;;;;;;0.73;100.00;99470.84;5608214;31;34274;-70
2024/01/16 04:37:32;;;;;;;5.45;2.90;;;;;;;0.79;100.00;99487.78;5608779;31;34679;-70
2024/01/16 04:40:35;;;;;;;5.35;2.70;;;;;;;0.76;100.00;99481.06;5608224;31;34393;-70
2024/01/16 04:43:38;;;;;;;4.62;3.00;;;;;;;0.81;100.00;99483.28;5608211;31;34363;-69
2024/01/16 04:46:41;;;;;;;5.82;3.22;;;;;;;0.78;100.00;99499.19;5607443;31;35033;-69
2024/01/16 04:49:43;;;;;;;4.32;2.90;;;;;;;0.61;100.00;99500.59;5608347;31;34424;-69
2024/01/16 04:52:47;;;;;;;4.40;2.95;;;;;;;0.64;100.00;99507.31;5608086;31;34344;-70
2024/01/16 04:55:50;;;;;;;4.20;2.92;;;;;;;0.67;100.00;99507.09;5608061;31;35176;-69
2024/01/16 04:58:53;;;;;;;5.35;3.12;;;;;;;0.71;100.00;99505.87;5607892;31;34379;-69
2024/01/16 05:01:56;;;;;;;5.62;3.10;;;;;;;0.70;100.00;99512.87;5608011;31;34263;-69
2024/01/16 05:04:59;;;;;;;7.35;3.37;;;;;;;0.80;100.00;99519.00;5607898;31;35718;-70
2024/01/16 05:08:02;;;;;;;6.00;2.85;;;;;;;0.72;100.00;99515.38;5607894;31;35085;-69
2024/01/16 05:11:07;;;;;;;6.12;3.15;;;;;;;0.69;100.00;99521.66;5607806;31;35020;-69
2024/01/16 05:14:10;;;;;;;3.50;2.58;;;;;;;0.55;100.00;99529.78;5607581;31;34991;-68
2024/01/16 05:17:13;;;;;;;4.80;3.00;;;;;;;0.64;100.00;99536.87;5607606;31;35252;-68
2024/01/16 05:20:15;;;;;;;8.85;3.10;;;;;;;0.61;100.00;99544.13;5606629;31;34623;-69
2024/01/16 05:23:18;;;;;;;5.53;2.75;;;;;;;0.62;100.00;99551.00;5607392;31;35107;-69
2024/01/16 05:26:22;;;;;;;9.50;3.30;;;;;;;0.72;100.00;99549.31;5607404;31;34408;-69
2024/01/16 05:29:25;;;;;;;9.02;3.30;;;;;;;0.64;100.00;99554.31;5606629;31;35283;-68
2024/01/16 05:32:27;;;;;;;5.90;3.20;;;;;;;0.68;100.00;99566.16;5607403;31;34531;-69
2024/01/16 05:35:30;;;;;;;4.95;2.87;;;;;;;0.61;100.00;99573.66;5608378;31;34501;-69
2024/01/16 05:38:34;;;;;;;9.10;2.85;;;;;;;0.67;100.00;99570.56;5608963;31;35085;-69
2024/01/16 05:41:38;;;;;;;9.45;3.20;;;;;;;0.73;100.00;99588.31;5609861;31;34970;-69
2024/01/16 05:44:40;;;;;;;6.07;2.85;;;;;;;0.76;100.00;99589.87;5609792;31;35180;-69
2024/01/16 05:47:44;;;;;;;6.95;3.40;;;;;;;0.72;100.00;99602.34;5609175;31;34443;-69
2024/01/16 05:50:47;;;;;;;8.23;3.25;;;;;;;0.68;100.00;99598.31;5609732;31;34265;-69
2024/01/16 05:53:50;;;;;;;5.53;2.90;;;;;;;0.70;100.00;99599.03;5609696;31;35024;-70
2024/01/16 05:56:53;;;;;;;11.85;3.30;;;;;;;0.73;100.00;99611.81;5608934;31;34405;-70
2024/01/16 05:59:56;;;;;;;4.35;2.67;;;;;;;0.67;100.00;99601.88;5609723;31;34450;-69
2024/01/16 06:02:58;;;;;;;5.50;2.75;;;;;;;0.66;100.00;99602.00;5609702;31;34448;-69
2024/01/16 06:06:01;;;;;;;5.60;3.00;;;;;;;0.61;100.00;99601.53;5609776;31;35144;-70
2024/01/16 06:09:05;;;;;;;4.22;2.65;;;;;;;0.62;100.00;99616.25;5608917;31;35033;-69
2024/01/16 06:12:08;;;;;;;6.72;2.95;;;;;;;0.54;100.00;99616.84;5609291;31;34410;-69
2024/01/16 06:15:11;;;;;;;6.05;3.35;;;;;;;0.56;100.00;99622.78;5609379;31;34987;-69
2024/01/16 06:18:14;;;;;;;4.80;2.95;;;;;;;0.51;100.00;99634.53;5609447;31;34534;-70
2024/01/16 06:21:17;;;;;;;4.80;3.10;;;;;;;0.45;100.00;99635.84;5609283;31;35072;-69
2024/01/16 06:24:23;;;;;;;5.47;3.22;;;;;;;0.48;100.00;99640.03;5608620;31;34916;-68
2024/01/16 06:27:26;;;;;;;5.97;3.22;;;;;;;0.37;100.00;99633.03;5609363;31;34547;-69
2024/01/16 06:30:28;;;;;;;5.15;3.10;;;;;;;0.38;100.00;99643.37;5609315;31;33778;-69
2024/01/16 06:33:31;;;;;;;5.53;3.00;;;;;;;0.40;100.00;99653.66;5609011;31;35477;-70
2024/01/16 06:36:35;;;;;;;5.60;3.35;;;;;;;0.43;100.00;99648.22;5609091;31;32060;-69
2024/01/16 06:39:37;;;;;;;5.68;3.08;;;;;;;0.38;100.00;99647.75;5609087;31;34610;-69
2024/01/16 06:42:40;;;;;;;6.07;3.30;;;;;;;0.43;100.00;99664.72;5608402;31;35948;-69
2024/01/16 06:45:44;;;;;;;5.18;3.08;;;;;;;0.41;99.92;99669.19;5608609;31;34431;-70
2024/01/16 06:48:48;;;;;;;7.70;3.97;;;;;;;0.38;100.00;99679.88;5608486;31;33653;-69
2024/01/16 06:51:51;;;;;;;6.18;3.22;;;;;;;0.29;100.00;99682.38;5607976;31;34881;-68
2024/01/16 06:54:54;;;;;;;4.70;3.33;;;;;;;0.26;100.00;99686.06;5608817;31;34215;-70
2024/01/16 06:57:57;;;;;;;6.68;3.53;;;;;;;0.25;100.00;99713.06;5608830;31;34426;-70
2024/01/16 07:01:00;;;;;;;5.12;3.30;;;;;;;0.29;100.00;99695.44;5608454;31;35093;-70
2024/01/16 07:04:03;;;;;;;5.60;3.30;;;;;;;0.30;100.00;99710.94;5608916;31;34433;-70
2024/01/16 07:07:06;;;;;;;7.90;2.97;;;;;;;0.26;100.00;99713.91;5609063;31;34512;-69
2024/01/16 07:10:13;;;;;;;5.87;3.35;;;;;;;0.36;99.62;99713.09;5609050;31;34477;-70
2024/01/16 07:13:16;;;;;;;4.82;3.42;;;;;;;0.35;99.38;99731.47;5609043;31;34527;-69
2024/01/16 07:16:18;;;;;;;5.50;3.10;;;;;;;0.44;98.40;99725.53;5608754;31;34510;-69
2024/01/16 07:19:21;;;;;;;4.72;3.00;;;;;;;0.46;97.53;99734.06;5608511;31;34541;-69
2024/01/16 07:22:24;;;;;;;5.22;3.25;;;;;;;0.58;95.50;99725.28;5609018;31;34400;-68
2024/01/16 07:25:27;;;;;;;5.85;3.28;;;;;;;0.67;93.53;99735.00;5608610;31;34963;-69
2024/01/16 07:28:30;;;;;;;7.43;3.22;;;;;;;0.77;92.30;99737.72;5608767;31;35048;-69
2024/01/16 07:31:33;;;;;;;5.53;2.80;;;;;;;0.83;91.03;99752.88;5607749;31;34384;-69
2024/01/16 07:34:36;;;;;;;7.37;2.90;;;;;;;0.88;90.16;99756.78;5608840;31;34289;-69
2024/01/16 07:37:39;;;;;;;6.78;3.08;;;;;;;0.95;89.57;99764.97;5609017;31;34271;-69
2024/01/16 07:40:42;;;;;;;7.22;2.65;;;;;;;1.11;87.67;99773.28;5608320;31;34445;-69
2024/01/16 07:43:45;;;;;;;5.97;2.97;;;;;;;1.27;85.50;99765.00;5608018;31;34359;-68
2024/01/16 07:46:51;;;;;;;7.65;2.90;;;;;;;1.31;85.56;99769.84;5608375;31;34347;-69
2024/01/16 07:49:54;;;;;;;4.90;2.83;;;;;;;1.43;84.11;99780.28;5608883;31;34366;-69
2024/01/16 07:52:57;;;;;;;6.57;2.83;;;;;;;1.53;83.18;99800.31;5608527;31;35861;-69
2024/01/16 07:56:00;;;;;;;5.62;2.78;;;;;;;1.65;82.69;99799.31;5608399;31;34303;-69
2024/01/16 07:59:03;;;;;;;5.82;2.53;;;;;;;1.70;82.71;99798.94;5606896;31;34599;-68
2024/01/16 08:02:06;;;;;;;6.50;2.70;;;;;;;1.67;82.27;99805.25;5608669;31;34307;-68
2024/01/16 08:05:09;;;;;;;5.47;2.90;;;;;;;1.65;82.48;99811.56;5607826;31;34230;-69
2024/01/16 08:08:12;;;;;;;5.22;2.58;;;;;;;1.63;81.56;99819.53;5608785;31;35733;-68
2024/01/16 08:11:16;;;;;;;5.70;2.62;;;;;;;1.68;81.91;99824.41;5608683;31;34200;-69
2024/01/16 08:14:18;;;;;;;6.47;2.60;;;;;;;1.71;81.43;99832.81;5608770;31;34355;-68
2024/01/16 08:17:21;;;;;;;6.43;2.80;;;;;;;1.68;81.00;99834.84;5608872;31;35473;-68
2024/01/16 08:20:24;;;;;;;4.78;2.87;;;;;;;1.68;80.61;99811.31;5608380;31;34326;-69
2024/01/16 08:23:27;;;;;;;5.95;3.00;;;;;;;1.74;80.67;99837.78;5608608;31;35057;-68
2024/01/16 08:26:30;;;;;;;4.93;3.10;;;;;;;1.82;80.86;99831.94;5608570;31;34463;-68
2024/01/16 08:29:33;;;;;;;5.03;3.03;;;;;;;1.72;80.52;99829.25;5608392;31;35126;-68
2024/01/16 08:32:35;;;;;;;6.47;3.30;;;;;;;1.72;81.46;99844.09;5608394;31;34657;-68
2024/01/16 08:35:39;;;;;;;7.55;3.37;;;;;;;1.67;80.68;99859.34;5608350;31;34411;-68
2024/01/16 08:38:42;;;;;;;7.30;3.08;;;;;;;1.63;80.36;99866.59;5608332;31;34443;-69
2024/01/16 08:41:45;;;;;;;12.82;3.78;;;;;;;1.80;80.10;99862.59;5608471;31;35171;-69
2024/01/16 08:44:48;;;;;;;5.90;3.40;;;;;;;1.87;80.21;99870.78;5608239;31;35032;-69
2024/01/16 08:47:51;;;;;;;6.05;3.28;;;;;;;1.93;79.04;99868.53;5608207;31;35455;-69
2024/01/16 08:50:54;;;;;;;8.95;3.60;;;;;;;1.87;79.39;99876.84;5608297;31;35403;-69
2024/01/16 08:53:58;;;;;;;6.47;3.55;;;;;;;2.06;78.63;99882.25;5607406;31;34348;-69
2024/01/16 08:57:01;;;;;;;6.70;3.55;;;;;;;2.14;77.63;99877.19;5608522;31;35009;-70
2024/01/16 09:00:08;;;;;;;7.53;3.08;;;;;;;2.24;76.45;99876.44;5607369;31;34334;-70
2024/01/16 09:03:11;;;;;;;6.05;3.00;;;;;;;2.13;75.83;99887.81;5607917;31;34259;-70
2024/01/16 09:06:14;;;;;;;5.68;3.42;;;;;;;2.09;75.26;99887.22;5608059;31;34538;-70
2024/01/16 09:09:18;;;;;;;6.47;3.12;;;;;;;2.18;75.05;99886.47;5607085;31;35757;-69
2024/01/16 09:12:21;;;;;;;6.82;3.08;;;;;;;2.24;74.84;99889.53;5607969;31;34927;-69
2024/01/16 09:15:23;;;;;;;4.47;3.00;;;;;;;2.24;74.24;99892.16;5607747;31;35068;-70
2024/01/16 09:18:26;;;;;;;12.77;3.50;;;;;;;2.08;73.57;99897.84;5607779;31;35087;-69
2024/01/16 09:21:29;;;;;;;6.50;3.35;;;;;;;1.97;73.71;99898.69;5607602;31;34401;-70
2024/01/16 09:24:32;;;;;;;5.85;3.03;;;;;;;2.00;73.13;99900.22;5606976;31;34404;-69
2024/01/16 09:27:35;;;;;;;9.82;3.42;;;;;;;1.95;73.51;99908.44;5607312;31;34308;-69
2024/01/16 09:30:38;;;;;;;10.10;3.60;;;;;;;1.94;73.56;99904.16;5607545;31;34998;-69
2024/01/16 09:33:41;;;;;;;6.62;3.17;;;;;;;1.97;73.05;99906.53;5607442;31;34271;-68
2024/01/16 09:36:44;;;;;;;7.72;2.87;;;;;;;2.01;72.53;99909.75;5607187;31;34268;-69
2024/01/16 09:39:46;;;;;;;8.75;3.10;;;;;;;2.05;71.71;99901.50;5607430;31;34968;-69
2024/01/16 09:42:50;;;;;;;7.85;3.03;;;;;;;2.07;71.17;99899.63;5607590;31;34489;-70
2024/01/16 09:45:55;;;;;;;7.90;2.87;;;;;;;2.16;70.88;99904.09;5607309;31;35092;-69
2024/01/16 09:49:02;;;;;;;6.62;2.83;;;;;;;2.27;69.47;99915.47;5607152;31;34383;-70
2024/01/16 09:52:05;;;;;;;5.62;2.70;;;;;;;2.34;69.68;99906.97;5607081;31;34971;-70
2024/01/16 09:55:09;;;;;;;9.30;3.00;;;;;;;2.51;68.30;99905.56;5607763;31;35100;-69
2024/01/16 09:58:14;;;;;;;8.13;3.03;;;;;;;2.76;67.50;99917.44;5606812;31;34289;-69
2024/01/16 10:01:18;;;;;;;6.30;2.70;;;;;;;2.84;67.06;99901.91;5606485;31;34508;-69
2024/01/16 10:04:21;;;;;;;6.62;3.30;;;;;;;2.71;66.39;99911.75;5606406;31;34349;-69
2024/01/16 10:07:27;;;;;;;7.43;2.87;;;;;;;2.68;66.37;99904.16;5606871;31;34322;-69
2024/01/16 10:10:30;;;;;;;9.93;3.47;;;;;;;2.67;66.72;99903.31;5606774;31;34290;-69
2024/01/16 10:13:48;;;;;;;5.70;3.10;;;;;;;2.67;66.02;99902.47;5606504;31;34944;-68
2024/01/16 10:17:15;;;;;;;5.62;3.40;;;;;;;2.81;65.82;99902.97;5605809;31;35302;-69
2024/01/16 10:20:33;;;;;;;6.87;3.28;;;;;;;2.69;65.43;99903.19;5605585;31;34404;-70
2024/01/16 10:23:38;;;;;;;7.68;3.00;;;;;;;2.61;65.17;99904.66;5609531;31;34513;-69
2024/01/16 10:26:41;;;;;;;5.78;3.12;;;;;;;2.68;65.86;99912.84;5609523;31;34296;-70
2024/01/16 10:29:58;;;;;;;12.75;3.20;;;;;;;2.74;65.41;99914.94;5609740;31;34301;-70
2024/01/16 10:33:14;;;;;;;5.87;2.90;;;;;;;2.69;65.51;99909.25;5608576;31;34986;-68
2024/01/16 10:36:20;;;;;;;11.07;3.53;;;;;;;2.67;65.41;99915.56;5609492;31;34636;-68
2024/01/16 10:39:23;;;;;;;9.25;3.28;;;;;;;2.49;65.37;99912.72;5609449;31;34301;-69
2024/01/16 10:42:39;;;;;;;6.62;2.97;;;;;;;2.37;65.71;99909.31;5609265;31;34326;-69
2024/01/16 10:45:42;;;;;;;7.72;3.62;;;;;;;2.41;66.54;99909.91;5608564;31;34355;-69
2024/01/16 10:49:02;;;;;;;6.85;3.12;;;;;;;2.49;66.00;99908.31;5611641;31;34330;-69
2024/01/16 10:52:10;;;;;;;6.78;3.37;;;;;;;2.55;66.40;99918.28;5610827;31;34611;-70
2024/01/16 10:55:22;;;;;;;6.32;3.53;;;;;;;2.70;66.05;99900.47;5609579;31;35588;-70
2024/01/16 10:58:27;;;;;;;6.95;3.50;;;;;;;2.69;65.42;99913.66;5608966;31;35355;-72
2024/01/16 11:01:32;;;;;;;5.43;2.53;;;;;;;2.71;65.76;99906.53;5609257;31;34989;-69
2024/01/16 11:04:37;;;;;;;9.57;3.42;;;;;;;2.75;64.92;99908.75;5609353;31;35745;-70
2024/01/16 11:07:42;;;;;;;11.38;2.90;;;;;;;2.77;64.13;99898.97;5609209;31;34360;-70
2024/01/16 11:10:47;;;;;;;7.87;2.90;;;;;;;2.92;64.81;99900.28;5608474;31;34314;-69
2024/01/16 11:13:51;;;;;;;7.78;2.70;;;;;;;3.05;64.04;99911.38;5608941;31;34372;-68
2024/01/16 11:16:56;;;;;;;5.53;2.47;;;;;;;3.07;63.88;99900.75;5609036;31;34384;-70
2024/01/16 11:19:59;;;;;;;6.00;2.85;;;;;;;3.02;63.22;99897.72;5608483;31;34306;-70
2024/01/16 11:23:23;;;;;;;8.60;2.95;;;;;;;3.05;63.15;99913.97;5609081;31;34381;-69
2024/01/16 11:26:33;;;;;;;6.57;2.78;;;;;;;3.14;63.08;99907.16;5609438;31;34335;-69
2024/01/16 11:29:37;;;;;;;;;;;;;;;3.13;62.92;99910.72;5609216;31;34541;-69
2024/01/16 11:32:41;;;;;;;4.62;2.70;;;;;;;3.33;62.46;99904.59;5607734;31;34560;-71
2024/01/16 11:35:44;;;;;;;7.87;3.20;;;;;;;3.49;62.13;99911.94;5608190;31;34450;-69
2024/01/16 11:38:47;;;;;;;6.75;2.72;;;;;;;3.74;61.82;99919.31;5608840;31;34478;-69
2024/01/16 11:41:53;;;;;;;6.78;3.10;;;;;;;3.85;60.91;99919.19;5608913;31;33974;-67
2024/01/16 11:44:56;;;;;;;6.10;2.90;;;;;;;3.73;60.85;99912.41;5609295;31;35005;-68
2024/01/16 11:48:16;;;;;;;4.68;2.67;;;;;;;3.82;60.06;99913.41;5608212;31;34500;-68
2024/01/16 11:51:24;;;;;;;7.35;2.60;;;;;;;3.66;60.26;99913.09;5608798;31;34294;-68
2024/01/16 11:54:27;;;;;;;6.03;2.90;;;;;;;3.71;59.79;99897.78;5608975;31;34294;-68
2024/01/16 11:57:47;;;;;;;8.07;3.15;;;;;;;3.70;60.14;99896.94;5607780;31;34301;-68
2024/01/16 12:00:53;;;;;;;6.05;2.28;;;;;;;3.70;59.23;99906.59;5608085;31;34431;-67
2024/01/16 12:04:04;;;;;;;6.75;2.50;;;;;;;3.58;58.64;99898.03;5608414;31;34313;-69
2024/01/16 12:07:08;;;;;;;6.32;2.83;;;;;;;3.63;58.72;99902.87;5608756;31;34295;-68
2024/01/16 12:10:11;;;;;;;8.07;2.40;;;;;;;3.78;58.63;99910.19;5608423;31;34963;-68
2024/01/16 12:13:14;;;;;;;5.32;2.20;;;;;;;3.72;58.32;99910.75;5608546;31;35484;-67
2024/01/16 12:16:19;;;;;;;7.25;2.17;;;;;;;4.01;57.50;99910.78;5608576;31;35109;-67
2024/01/16 12:19:22;;;;;;;4.25;2.45;;;;;;;4.32;56.52;99903.59;5608354;31;34627;-68
2024/01/16 12:22:26;;;;;;;5.55;2.25;;;;;;;5.08;54.62;99896.50;5608642;31;35991;-67
2024/01/16 12:25:30;;;;;;;5.82;2.60;;;;;;;5.20;53.94;99909.31;5608170;31;34506;-68
2024/01/16 12:28:54;;;;;;;11.40;2.40;;;;;;;5.16;54.27;99904.50;5608404;31;34264;-68
2024/01/16 12:32:21;;;;;;;5.95;2.35;;;;;;;5.16;53.51;99892.19;5608240;31;35506;-68
2024/01/16 12:35:24;;;;;;;6.30;2.30;;;;;;;5.28;53.41;99894.63;5608368;31;35011;-69
2024/01/16 12:38:27;;;;;;;6.15;2.53;;;;;;;5.09;53.08;99893.72;5607980;31;35008;-69
2024/01/16 12:41:39;;;;;;;10.32;2.37;;;;;;;5.06;53.85;99895.81;5608010;31;35543;-68
2024/01/16 12:44:46;;;;;;;6.35;2.45;;;;;;;4.98;54.02;99893.09;5608011;31;34521;-70
2024/01/16 12:47:53;;;;;;;4.45;1.90;;;;;;;4.97;52.82;99900.16;5607970;31;34370;-68
2024/01/16 12:51:03;;;;;;;3.15;1.60;;;;;;;5.16;50.75;99900.06;5608103;31;34441;-69
2024/01/16 12:54:14;;;;;;;3.25;1.42;;;;;;;5.16;49.79;99889.56;5607538;31;34427;-70
2024/01/16 12:57:19;;;;;;;6.00;1.48;;;;;;;4.93;49.86;99901.41;5607946;31;34339;-69
2024/01/16 13:00:26;;;;;;;5.68;1.40;;;;;;;5.52;50.19;99902.78;5607848;31;34984;-69
2024/01/16 13:03:30;;;;;;;4.68;1.40;;;;;;;5.58;48.63;99904.84;5607166;31;34325;-69
2024/01/16 13:06:33;;;;;;;6.75;1.75;;;;;;;5.53;49.46;99904.44;5607362;31;35259;-68
2024/01/16 13:09:36;;;;;;;7.62;1.60;;;;;;;5.71;49.00;99905.34;5607545;31;34095;-68
2024/01/16 13:12:40;;;;;;;4.93;1.40;;;;;;;5.59;48.75;99904.69;5607691;31;34823;-69
2024/01/16 13:15:47;;;;;;;5.32;1.60;;;;;;;5.60;47.82;99909.00;5608027;31;34358;-68
2024/01/16 13:19:01;;;;;;;6.87;1.70;;;;;;;5.54;48.39;99912.19;5607669;31;35592;-68
2024/01/16 13:22:04;;;;;;;6.62;1.30;;;;;;;5.05;48.79;99910.75;5607522;31;34263;-68
2024/01/16 13:25:07;;;;;;;3.45;1.25;;;;;;;4.84;48.70;99910.16;5607548;31;34249;-68
2024/01/16 13:28:14;;;;;;;5.10;1.42;;;;;;;4.63;49.86;99905.09;5607393;31;34550;-67
2024/01/16 13:31:17;;;;;;;4.87;1.40;;;;;;;4.65;49.43;99908.38;5607476;31;34374;-67
2024/01/16 13:34:21;;;;;;;4.03;1.45;;;;;;;4.59;49.62;99916.00;5607289;31;34337;-67
2024/01/16 13:37:27;;;;;;;3.62;1.12;;;;;;;4.56;48.92;99916.28;5607200;31;34371;-67
2024/01/16 13:40:30;;;;;;;5.70;1.30;;;;;;;4.37;50.30;99914.50;5607161;31;34419;-66
2024/01/16 13:43:33;;;;;;;3.30;1.30;;;;;;;4.19;49.11;99919.63;5607128;31;34362;-68
2024/01/16 13:46:36;;;;;;;6.90;1.65;;;;;;;3.96;49.47;99917.41;5607340;31;34252;-68
2024/01/16 13:49:59;;;;;;;2.15;1.10;;;;;;;3.85;49.84;99923.63;5607022;31;34357;-68
2024/01/16 13:53:02;;;;;;;3.20;1.25;;;;;;;3.84;50.26;99927.19;5607016;31;34401;-67
2024/01/16 13:56:05;;;;;;;11.07;1.70;;;;;;;3.76;50.44;99932.31;5607718;31;35357;-67
2024/01/16 13:59:08;;;;;;;5.45;1.73;;;;;;;3.68;50.72;99938.22;5608896;31;34217;-68
2024/01/16 14:02:11;;;;;;;7.07;1.50;;;;;;;3.69;50.72;99929.38;5608854;31;34287;-66
2024/01/16 14:05:17;;;;;;;6.30;1.60;;;;;;;3.63;50.87;99936.97;5608842;31;35095;-67
2024/01/16 14:08:21;;;;;;;3.85;1.30;;;;;;;3.52;51.18;99930.03;5609266;31;34370;-67
2024/01/16 14:11:24;;;;;;;3.97;1.23;;;;;;;3.62;50.73;99930.91;5609775;31;34501;-68
2024/01/16 14:14:26;;;;;;;4.78;1.27;;;;;;;3.66;50.33;99924.41;5609523;31;34374;-66
2024/01/16 14:17:30;;;;;;;2.75;1.00;;;;;;;3.69;50.17;99933.78;5609392;31;35368;-67
2024/01/16 14:20:33;;;;;;;3.90;1.10;;;;;;;3.69;50.02;99944.28;5598843;31;34296;-67
2024/01/16 14:23:37;;;;;;;3.45;1.30;;;;;;;3.66;50.19;99934.91;5575814;31;34563;-67
2024/01/16 14:26:44;;;;;;;3.75;1.27;;;;;;;3.64;50.76;99933.37;5575816;31;34376;-67
2024/01/16 14:29:47;;;;;;;2.87;1.30;;;;;;;3.67;50.30;99951.47;5589390;31;34294;-67
2024/01/16 14:32:49;;;;;;;4.72;1.30;;;;;;;3.59;50.61;99944.25;5589278;31;34375;-67